Latest Weather Observations for Albion Park

IDN60801

Issued at 3:35 pm EST Thursday 24 April 2014 (issued every 30 minutes, with the page automatically refreshed every 10 minutes)

About weather observations | Map of weather stations | Latest weather observations for NSW | Other Formats
Station Details ID: 068241 Name: WOLLONGONG AIRPORT Lat: -34.56 Lon: 150.79 Height: 8.0 m
Data from the previous 72 hours. | See also: Recent months at Albion Park
Date/Time
EST
Temp
°C
App
Temp
°C
Dew
Point
Rel
Hum
%
Delta-T
°C
Wind Press
QNH
hPa
Press
MSL
hPa
Rain
since 9 am
mm
Dir
 
Spd
km/h
Gust
km/h
Spd
kts
Gust
kts
24/03:30pm 27.2 22.5 9.1 32 9.9 W 24 32 13 17 1011.5 - 0.0
24/03:00pm 27.6 21.6 8.5 30 10.4 W 30 43 16 23 1011.2 1011.2 0.0
24/02:30pm 27.9 22.5 8.2 29 10.7 W 26 41 14 22 1010.9 - 0.0
24/02:00pm 27.5 23.0 8.4 30 10.4 WNW 22 32 12 17 1010.6 - 0.0
24/01:30pm 27.3 23.1 8.2 30 10.3 WNW 20 39 11 21 1010.7 - 0.0
24/01:16pm 27.4 21.6 7.8 29 10.5 W 28 46 15 25 1010.8 - 0.0
24/01:00pm 27.4 21.4 8.8 31 10.2 W 30 43 16 23 1010.9 - 0.0
24/12:30pm 27.4 22.5 8.3 30 10.4 W 24 33 13 18 1011.1 - 0.0
24/12:00pm 26.9 21.1 7.9 30 10.2 WNW 28 48 15 26 1011.4 1011.4 0.0
24/11:59am 26.9 21.2 8.4 31 10.0 WNW 28 48 15 26 1011.4 - 0.0
24/11:30am 26.2 23.1 8.7 33 9.5 W 15 20 8 11 1011.9 - 0.0
24/11:00am 25.1 21.9 8.6 35 8.9 W 15 20 8 11 1012.3 - 0.0
24/10:30am 24.5 22.0 8.0 35 8.8 W 11 17 6 9 1012.5 - 0.0
24/10:00am 23.6 20.2 9.2 40 7.8 W 17 20 9 11 1012.4 - 0.0
24/09:30am 22.7 19.8 8.0 39 7.7 WSW 13 19 7 10 1012.4 - 0.0
24/09:00am 18.9 19.4 15.0 78 2.3 SSW 6 9 3 5 1012.5 1012.5 0.0
24/08:30am 18.3 17.9 13.0 71 3.0 SE 7 11 4 6 1012.3 - 0.0
24/08:00am 17.4 18.1 15.7 90 1.0 ESE 6 9 3 5 1012.1 - 0.0
24/07:30am 14.0 15.2 13.7 98 0.2 CALM 0 0 0 0 1012.0 - 0.0
24/07:00am 10.9 11.1 10.7 99 0.1 CALM 0 0 0 0 1011.8 - 0.0
24/06:30am 9.9 8.7 9.6 98 0.1 SW 6 9 3 5 1011.9 - 0.0
24/06:00am 9.8 9.3 9.3 97 0.2 W 2 7 1 4 1011.9 1011.9 0.0
24/05:30am 9.7 9.2 9.2 97 0.2 WSW 2 7 1 4 1011.9 - 0.0
24/05:00am 10.0 8.8 9.5 97 0.2 SW 6 13 3 7 1011.8 - 0.0
24/04:30am 10.2 10.1 9.6 96 0.3 CALM 0 0 0 0 1011.9 - 0.0
24/04:00am 10.8 10.2 10.3 97 0.3 SSW 4 6 2 3 1011.9 - 0.0
24/03:30am 11.3 11.6 10.8 97 0.3 CALM 0 6 0 3 1012.0 - 0.0
24/03:00am 11.4 11.7 10.8 96 0.3 CALM 0 0 0 0 1012.3 1012.3 0.0
24/02:30am 12.2 12.0 11.7 97 0.3 WSW 4 9 2 5 1012.6 - 0.0
24/02:00am 11.9 10.9 11.1 95 0.4 WSW 7 7 4 4 1013.0 - 0.0
24/01:30am 12.5 12.3 11.9 96 0.3 W 4 7 2 4 1013.4 - 0.0
24/01:00am 12.9 13.6 12.3 96 0.3 CALM 0 0 0 0 1013.5 - 0.0
24/12:30am 12.9 12.8 12.1 95 0.4 SSW 4 7 2 4 1013.8 - 0.0
24/12:00am 13.4 13.5 12.8 96 0.3 SSW 4 9 2 5 1014.0 1014.0 0.0
 
Date/Time
EST
Temp
°C
App
Temp
°C
Dew
Point
Rel
Hum
%
Delta-T
°C
Wind Press
QNH
hPa
Press
MSL
hPa
Rain
since 9 am
mm
Dir
 
Spd
km/h
Gust
km/h
Spd
kts
Gust
kts
23/11:30pm 13.7 14.2 12.9 95 0.4 SSW 2 9 1 5 1014.0 - 0.0
23/11:00pm 14.3 15.5 13.7 96 0.3 CALM 0 0 0 0 1014.2 - 0.0
23/10:30pm 14.4 15.5 13.6 95 0.4 CALM 0 0 0 0 1014.5 - 0.0
23/10:00pm 14.6 15.7 13.5 93 0.6 CALM 0 0 0 0 1014.7 - 0.0
23/09:30pm 14.8 15.7 14.0 95 0.4 WSW 2 9 1 5 1015.0 - 0.0
23/09:00pm 14.8 16.0 13.7 93 0.6 CALM 0 0 0 0 1015.1 1015.1 0.0
23/08:30pm 15.2 15.1 13.9 92 0.7 W 7 9 4 5 1015.3 - 0.0
23/08:00pm 15.5 15.7 14.2 92 0.7 W 6 9 3 5 1015.4 - 0.0
23/07:30pm 15.7 15.5 14.6 93 0.6 NW 9 11 5 6 1015.4 - 0.0
23/07:00pm 15.8 15.7 14.0 89 1.0 WNW 7 9 4 5 1015.4 - 0.0
23/06:30pm 16.6 16.8 14.2 86 1.4 WNW 6 7 3 4 1015.3 - 0.0
23/06:00pm 17.7 17.9 14.8 83 1.7 NW 7 9 4 5 1015.1 1015.1 0.0
23/05:30pm 20.9 20.7 14.8 68 3.6 NE 9 13 5 7 1014.7 - 0.0
23/05:00pm 21.6 20.3 13.8 61 4.5 ENE 13 15 7 8 1014.6 - 0.0
23/04:30pm 22.5 21.2 13.8 58 5.1 ENE 13 17 7 9 1014.5 - 0.0
23/04:00pm 23.1 22.2 14.9 60 4.9 ENE 13 15 7 8 1014.3 - 0.0
23/03:30pm 23.1 22.0 15.2 61 4.7 ENE 15 17 8 9 1014.5 - 0.0
23/03:00pm 23.6 22.2 14.6 57 5.3 ENE 15 19 8 10 1014.5 1014.5 0.0
23/02:30pm 23.8 22.1 13.6 52 5.9 ENE 15 20 8 11 1014.6 - 0.0
23/02:00pm 24.1 22.2 13.0 50 6.4 ENE 15 19 8 10 1014.7 - 0.0
23/01:30pm 24.7 23.3 12.3 46 7.1 ENE 11 15 6 8 1014.8 - 0.0
23/01:00pm 24.3 22.4 12.9 49 6.6 ENE 15 19 8 10 1015.1 - 0.0
23/12:30pm 24.5 22.8 13.7 51 6.3 ENE 15 19 8 10 1015.6 - 0.0
23/12:00pm 23.9 22.1 13.4 51 6.1 ENE 15 17 8 9 1015.7 1015.7 0.0
23/11:30am 24.0 22.4 12.9 50 6.4 ENE 13 17 7 9 1016.3 - 0.0
23/11:00am 24.5 23.5 11.1 43 7.5 ENE 7 9 4 5 1016.6 - 0.0
23/10:30am 23.3 23.3 11.0 46 6.8 S 2 6 1 3 1016.9 - 0.0
23/10:00am 22.3 21.7 11.7 51 5.9 W 6 7 3 4 1017.1 - 0.0
23/09:30am 21.0 21.9 13.9 64 4.1 WSW 2 6 1 3 1017.0 - 0.0
23/09:00am 18.9 19.8 14.0 73 2.8 W 2 6 1 3 1017.0 1017.0 0.0
23/08:30am 16.3 17.2 13.0 81 1.8 CALM 0 0 0 0 1017.2 - 0.0
23/08:00am 14.3 15.0 12.3 88 1.1 CALM 0 0 0 0 1017.1 - 0.0
23/07:30am 13.0 13.6 11.9 93 0.6 CALM 0 0 0 0 1016.9 - 0.0
23/07:00am 11.0 11.2 10.4 96 0.3 CALM 0 0 0 0 1016.8 - 0.0
23/06:30am 10.1 10.0 9.5 96 0.3 CALM 0 0 0 0 1016.6 - 0.0
23/06:00am 10.0 9.5 9.2 95 0.4 SSW 2 6 1 3 1016.4 1016.4 0.0
23/05:30am 10.0 9.8 9.2 95 0.4 CALM 0 0 0 0 1016.2 - 0.0
23/05:00am 9.8 8.8 8.7 93 0.5 SW 4 7 2 4 1016.2 - 0.0
23/04:30am 10.0 8.6 8.9 93 0.5 W 6 7 3 4 1016.1 - 0.0
23/04:00am 10.2 10.0 9.0 92 0.6 CALM 0 0 0 0 1015.9 - 0.0
23/03:30am 10.6 9.2 8.9 89 0.8 W 6 7 3 4 1015.9 - 0.0
23/03:00am 10.6 9.2 9.0 90 0.8 SSW 6 9 3 5 1015.9 1015.9 0.0
23/02:30am 11.1 11.0 9.4 89 0.9 CALM 0 0 0 0 1016.0 - 0.0
23/02:00am 11.1 10.8 8.8 86 1.1 CALM 0 0 0 0 1016.0 - 0.0
23/01:30am 11.4 11.2 9.0 85 1.2 CALM 0 0 0 0 1016.1 - 0.0
23/01:00am 11.4 10.0 9.0 85 1.2 S 6 7 3 4 1016.3 - 0.0
23/12:30am 11.8 10.4 9.0 83 1.4 ESE 6 6 3 3 1016.2 - 0.0
23/12:00am 12.0 10.9 8.5 79 1.7 SSW 4 9 2 5 1016.0 1016.0 0.0
 
Date/Time
EST
Temp
°C
App
Temp
°C
Dew
Point
Rel
Hum
%
Delta-T
°C
Wind Press
QNH
hPa
Press
MSL
hPa
Rain
since 9 am
mm
Dir
 
Spd
km/h
Gust
km/h
Spd
kts
Gust
kts
22/11:30pm 13.9 11.8 8.3 69 2.8 WSW 9 13 5 7 1015.9 - 0.0
22/11:00pm 17.9 14.2 7.9 52 5.1 WNW 17 22 9 12 1015.9 - 0.0
22/10:30pm 18.3 14.5 7.7 50 5.4 NW 17 20 9 11 1016.1 - 0.0
22/10:00pm 19.7 15.2 7.1 44 6.4 WNW 20 28 11 15 1016.1 - 0.0
22/09:30pm 20.4 17.4 6.0 39 7.2 WSW 11 22 6 12 1016.1 - 0.0
22/09:00pm 18.5 16.2 7.3 48 5.6 NNE 9 13 5 7 1015.9 1015.9 0.0
22/08:30pm 18.6 16.3 7.4 48 5.7 SSE 9 19 5 10 1015.9 - 0.0
22/08:00pm 20.1 15.8 7.1 43 6.6 WNW 19 26 10 14 1015.4 - 0.0
22/07:30pm 20.8 16.7 7.8 43 6.7 NNW 19 28 10 15 1015.4 - 0.0
22/07:00pm 20.3 16.0 9.5 50 5.8 NW 22 30 12 16 1015.4 - 0.0
22/06:30pm 18.9 18.3 12.4 66 3.6 NNW 7 19 4 10 1015.2 - 0.0
22/06:00pm 17.6 18.7 14.7 83 1.7 W 2 7 1 4 1015.0 1015.0 0.0
22/05:30pm 18.8 19.2 14.7 77 2.4 WNW 6 7 3 4 1014.7 - 0.0
22/05:00pm 20.2 21.8 14.8 71 3.2 CALM 0 7 0 4 1014.5 - 0.0
22/04:30pm 22.3 23.0 15.6 66 4.0 E 6 7 3 4 1014.3 - 0.0
22/04:00pm 22.8 22.3 13.8 57 5.2 E 9 13 5 7 1014.4 - 0.0
22/03:30pm 22.9 22.1 13.9 57 5.3 ESE 11 15 6 8 1014.4 - 0.0
22/03:00pm 22.9 21.5 13.4 55 5.5 ENE 13 17 7 9 1014.4 1014.4 0.0
22/02:30pm 22.8 21.2 13.8 57 5.2 ENE 15 19 8 10 1014.3 - 0.0
22/02:00pm 22.9 20.8 13.7 56 5.4 ENE 17 22 9 12 1014.5 - 0.0
22/01:30pm 24.2 22.7 11.9 46 7.0 ENE 11 15 6 8 1014.6 - 0.0
22/01:00pm 24.9 23.8 10.7 40 7.9 E 7 11 4 6 1014.8 - 0.0
22/12:30pm 24.1 22.4 11.1 44 7.3 ENE 11 15 6 8 1015.4 - 0.0
22/12:00pm 23.8 21.4 10.1 42 7.5 E 13 17 7 9 1016.0 1016.0 0.0
22/11:30am 23.8 22.2 10.1 42 7.5 E 9 13 5 7 1016.3 - 0.0
22/11:00am 23.4 21.9 10.5 44 7.1 ENE 9 15 5 8 1016.7 - 0.0
22/10:30am 23.1 21.8 9.8 43 7.2 N 7 11 4 6 1017.2 - 0.0
22/10:00am 22.0 20.7 11.4 51 5.9 N 9 13 5 7 1017.5 - 0.0
22/09:30am 19.7 18.6 10.1 54 5.2 NNW 6 7 3 4 1017.7 - 0.0
22/09:00am 16.9 17.4 12.8 77 2.3 WNW 2 6 1 3 1018.2 1018.2 0.0
22/08:30am 14.1 14.8 12.3 89 1.0 CALM 0 0 0 0 1018.1 - 0.0
22/08:00am 12.3 12.9 11.8 97 0.3 CALM 0 0 0 0 1018.2 - 0.0
22/07:30am 10.8 10.3 10.6 99 0.1 W 4 11 2 6 1018.1 - 0.0
22/07:00am 9.4 8.1 9.3 99 0.0 WSW 6 9 3 5 1017.9 - 0.0
22/06:30am 9.1 8.1 9.0 99 0.0 SW 4 7 2 4 1017.8 - 0.0
22/06:00am 9.1 7.7 9.0 99 0.0 W 6 11 3 6 1018.1 1018.1 0.0
22/05:30am 9.3 9.1 9.2 99 0.0 CALM 0 0 0 0 1018.0 - 0.0
22/05:00am 9.4 8.1 9.3 99 0.0 W 6 7 3 4 1017.9 - 0.0
22/04:30am 9.4 8.9 9.3 99 0.0 W 2 7 1 4 1018.0 - 0.0
22/04:00am 9.2 9.0 9.1 99 0.0 CALM 0 0 0 0 1018.1 - 0.0
22/03:30am 9.2 7.9 9.1 99 0.0 WNW 6 7 3 4 1018.1 - 0.0
22/03:00am 10.2 10.3 10.0 99 0.1 CALM 0 0 0 0 1018.1 1018.1 0.0
22/02:30am 10.6 9.6 10.4 99 0.1 W 6 7 3 4 1018.5 - 0.0
22/02:00am 11.0 10.9 10.7 98 0.2 NW 2 7 1 4 1018.7 - 0.0
22/01:30am 11.3 11.6 11.0 98 0.2 CALM 0 0 0 0 1019.0 - 0.0
22/01:00am 11.3 11.6 11.0 98 0.2 CALM 0 0 0 0 1019.2 - 0.0
22/12:30am 12.1 11.9 11.8 98 0.2 WSW 4 6 2 3 1019.4 - 0.0
22/12:00am 12.2 12.8 11.9 98 0.2 CALM 0 0 0 0 1019.5 1019.5 0.0
 
Date/Time
EST
Temp
°C
App
Temp
°C
Dew
Point
Rel
Hum
%
Delta-T
°C
Wind Press
QNH
hPa
Press
MSL
hPa
Rain
since 9 am
mm
Dir
 
Spd
km/h
Gust
km/h
Spd
kts
Gust
kts
21/11:30pm 12.5 13.1 12.0 97 0.3 CALM 0 0 0 0 1019.6 - 0.0
21/11:00pm 12.8 13.6 12.5 98 0.2 CALM 0 0 0 0 1019.8 - 0.0
21/10:30pm 12.8 12.4 12.5 98 0.2 W 6 7 3 4 1020.0 - 0.0
21/10:00pm 12.9 13.2 12.3 96 0.3 W 2 6 1 3 1020.3 - 0.0
21/09:30pm 12.9 12.2 12.1 95 0.4 W 7 9 4 5 1020.4 - 0.0
21/09:00pm 13.4 13.0 12.5 94 0.5 W 6 9 3 5 1020.1 1020.1 0.0
21/08:30pm 13.9 13.5 13.0 94 0.5 NW 7 9 4 5 1020.1 - 0.0
21/08:00pm 14.5 13.7 13.9 96 0.3 WNW 11 11 6 6 1020.1 - 0.0
21/07:30pm 14.3 14.0 13.3 94 0.6 W 7 9 4 5 1020.0 - 0.0
21/07:00pm 14.8 14.2 13.5 92 0.7 W 9 11 5 6 1019.9 - 0.0
21/06:30pm 15.8 15.6 13.5 86 1.3 WNW 7 7 4 4 1019.6 - 0.0
21/06:00pm 17.5 17.7 14.2 81 1.9 SW 6 7 3 4 1019.3 1019.3 0.0
21/05:30pm 19.1 19.4 14.4 74 2.7 SE 6 9 3 5 1018.9 - 0.0
21/05:00pm 20.0 19.8 14.6 71 3.1 S 9 13 5 7 1018.6 - 0.0
21/04:30pm 20.8 20.4 14.2 66 3.8 S 9 11 5 6 1018.7 - 0.0
21/04:00pm 21.9 20.8 14.3 62 4.4 ESE 13 19 7 10 1018.6 - 0.0

Other Formats:

Comma delimited format used in spreadsheet applications
http://www.bom.gov.au/fwo/IDN60801/IDN60801.95748.axf

JavaScript Object Notation format (JSON) in row-major order
http://www.bom.gov.au/fwo/IDN60801/IDN60801.95748.json